sensor_id;sensor_type;location;lat;lon;timestamp;temperature;humidity
3067;DHT22;1544;48.834;9.194;2023-04-15T00:01:18;6.70;39.60
3067;DHT22;1544;48.834;9.194;2023-04-15T00:03:54;6.70;39.90
3067;DHT22;1544;48.834;9.194;2023-04-15T00:06:29;6.70;40.20
3067;DHT22;1544;48.834;9.194;2023-04-15T00:09:05;6.60;40.40
3067;DHT22;1544;48.834;9.194;2023-04-15T00:11:39;6.60;40.60
3067;DHT22;1544;48.834;9.194;2023-04-15T00:14:14;6.60;40.80
3067;DHT22;1544;48.834;9.194;2023-04-15T00:16:49;6.60;41.00
3067;DHT22;1544;48.834;9.194;2023-04-15T00:19:30;6.60;41.20
3067;DHT22;1544;48.834;9.194;2023-04-15T00:22:06;6.50;41.20
3067;DHT22;1544;48.834;9.194;2023-04-15T00:24:41;6.50;41.40
3067;DHT22;1544;48.834;9.194;2023-04-15T00:27:16;6.40;41.40
3067;DHT22;1544;48.834;9.194;2023-04-15T00:29:51;6.40;41.50
3067;DHT22;1544;48.834;9.194;2023-04-15T00:32:26;6.40;41.70
3067;DHT22;1544;48.834;9.194;2023-04-15T00:35:01;6.30;41.80
3067;DHT22;1544;48.834;9.194;2023-04-15T00:37:36;6.30;41.80
3067;DHT22;1544;48.834;9.194;2023-04-15T00:40:12;6.30;42.00
3067;DHT22;1544;48.834;9.194;2023-04-15T00:42:47;6.20;42.00
3067;DHT22;1544;48.834;9.194;2023-04-15T00:45:22;6.20;42.10
3067;DHT22;1544;48.834;9.194;2023-04-15T00:47:57;6.20;42.40
3067;DHT22;1544;48.834;9.194;2023-04-15T00:50:32;6.10;42.40
3067;DHT22;1544;48.834;9.194;2023-04-15T00:53:07;6.10;42.60
3067;DHT22;1544;48.834;9.194;2023-04-15T00:55:42;6.10;42.80
3067;DHT22;1544;48.834;9.194;2023-04-15T00:58:17;6.00;42.80
3067;DHT22;1544;48.834;9.194;2023-04-15T01:00:54;6.00;43.00
3067;DHT22;1544;48.834;9.194;2023-04-15T01:03:29;6.00;43.30
3067;DHT22;1544;48.834;9.194;2023-04-15T01:06:05;6.00;43.60
3067;DHT22;1544;48.834;9.194;2023-04-15T01:08:40;6.00;43.80
3067;DHT22;1544;48.834;9.194;2023-04-15T01:11:16;5.90;43.90
3067;DHT22;1544;48.834;9.194;2023-04-15T01:13:52;5.90;44.00
3067;DHT22;1544;48.834;9.194;2023-04-15T01:16:26;5.90;44.00
3067;DHT22;1544;48.834;9.194;2023-04-15T01:19:02;5.80;44.00
3067;DHT22;1544;48.834;9.194;2023-04-15T01:21:38;5.80;44.10
3067;DHT22;1544;48.834;9.194;2023-04-15T01:24:17;6.20;44.30
3067;DHT22;1544;48.834;9.194;2023-04-15T01:26:52;5.70;44.10
3067;DHT22;1544;48.834;9.194;2023-04-15T01:29:29;5.70;44.40
3067;DHT22;1544;48.834;9.194;2023-04-15T01:32:06;5.60;44.70
3067;DHT22;1544;48.834;9.194;2023-04-15T01:34:41;5.60;45.10
3067;DHT22;1544;48.834;9.194;2023-04-15T01:37:16;5.50;45.10
3067;DHT22;1544;48.834;9.194;2023-04-15T01:39:51;5.50;45.50
3067;DHT22;1544;48.834;9.194;2023-04-15T01:42:26;5.50;45.70
3067;DHT22;1544;48.834;9.194;2023-04-15T01:45:01;5.50;45.70
3067;DHT22;1544;48.834;9.194;2023-04-15T01:47:37;5.40;45.80
3067;DHT22;1544;48.834;9.194;2023-04-15T01:50:12;5.40;46.00
3067;DHT22;1544;48.834;9.194;2023-04-15T01:52:47;5.40;46.30
3067;DHT22;1544;48.834;9.194;2023-04-15T01:55:22;5.40;46.60
3067;DHT22;1544;48.834;9.194;2023-04-15T01:57:57;5.30;46.80
3067;DHT22;1544;48.834;9.194;2023-04-15T02:00:32;5.30;47.10
3067;DHT22;1544;48.834;9.194;2023-04-15T02:03:07;5.30;47.20
3067;DHT22;1544;48.834;9.194;2023-04-15T02:05:42;5.20;47.40
3067;DHT22;1544;48.834;9.194;2023-04-15T02:08:17;5.20;47.70
3067;DHT22;1544;48.834;9.194;2023-04-15T02:10:52;5.20;48.00
3067;DHT22;1544;48.834;9.194;2023-04-15T02:13:28;5.20;48.40
3067;DHT22;1544;48.834;9.194;2023-04-15T02:16:17;5.20;48.90
3067;DHT22;1544;48.834;9.194;2023-04-15T02:18:52;5.10;49.30
3067;DHT22;1544;48.834;9.194;2023-04-15T02:21:27;5.10;49.90
3067;DHT22;1544;48.834;9.194;2023-04-15T02:24:03;5.10;50.20
3067;DHT22;1544;48.834;9.194;2023-04-15T02:26:38;5.10;50.50
3067;DHT22;1544;48.834;9.194;2023-04-15T02:29:13;5.10;50.60
3067;DHT22;1544;48.834;9.194;2023-04-15T02:31:48;5.10;50.70
3067;DHT22;1544;48.834;9.194;2023-04-15T02:34:23;5.10;50.90
3067;DHT22;1544;48.834;9.194;2023-04-15T02:36:58;5.00;50.90
3067;DHT22;1544;48.834;9.194;2023-04-15T02:39:33;5.00;51.20
3067;DHT22;1544;48.834;9.194;2023-04-15T02:42:08;5.00;51.20
3067;DHT22;1544;48.834;9.194;2023-04-15T02:44:43;5.00;51.30
3067;DHT22;1544;48.834;9.194;2023-04-15T02:47:19;4.90;50.80
3067;DHT22;1544;48.834;9.194;2023-04-15T02:49:55;4.90;50.80
3067;DHT22;1544;48.834;9.194;2023-04-15T02:52:32;4.90;50.60
3067;DHT22;1544;48.834;9.194;2023-04-15T02:55:07;4.90;50.60
3067;DHT22;1544;48.834;9.194;2023-04-15T02:57:44;4.80;50.60
3067;DHT22;1544;48.834;9.194;2023-04-15T03:00:19;4.80;50.90
3067;DHT22;1544;48.834;9.194;2023-04-15T03:03:02;4.80;51.20
3067;DHT22;1544;48.834;9.194;2023-04-15T03:05:38;4.80;51.50
3067;DHT22;1544;48.834;9.194;2023-04-15T03:08:13;4.80;51.50
3067;DHT22;1544;48.834;9.194;2023-04-15T03:10:48;4.70;51.40
3067;DHT22;1544;48.834;9.194;2023-04-15T03:13:26;4.70;51.50
3067;DHT22;1544;48.834;9.194;2023-04-15T03:16:02;4.70;51.40
3067;DHT22;1544;48.834;9.194;2023-04-15T03:18:39;4.70;51.20
3067;DHT22;1544;48.834;9.194;2023-04-15T03:21:14;4.70;51.20
3067;DHT22;1544;48.834;9.194;2023-04-15T03:23:49;4.70;51.50
3067;DHT22;1544;48.834;9.194;2023-04-15T03:26:28;4.70;51.60
3067;DHT22;1544;48.834;9.194;2023-04-15T03:29:08;4.70;52.30
3067;DHT22;1544;48.834;9.194;2023-04-15T03:31:43;4.70;52.70
3067;DHT22;1544;48.834;9.194;2023-04-15T03:34:18;4.70;53.00
3067;DHT22;1544;48.834;9.194;2023-04-15T03:36:54;4.60;53.50
3067;DHT22;1544;48.834;9.194;2023-04-15T03:39:29;4.60;53.80
3067;DHT22;1544;48.834;9.194;2023-04-15T03:42:05;4.60;54.30
3067;DHT22;1544;48.834;9.194;2023-04-15T03:44:40;4.60;54.50
3067;DHT22;1544;48.834;9.194;2023-04-15T03:47:15;4.60;54.80
3067;DHT22;1544;48.834;9.194;2023-04-15T03:49:50;4.60;55.00
3067;DHT22;1544;48.834;9.194;2023-04-15T03:52:25;4.60;55.60
3067;DHT22;1544;48.834;9.194;2023-04-15T03:55:00;4.60;56.10
3067;DHT22;1544;48.834;9.194;2023-04-15T03:57:35;4.60;56.20
3067;DHT22;1544;48.834;9.194;2023-04-15T04:00:12;4.60;56.20
3067;DHT22;1544;48.834;9.194;2023-04-15T04:02:47;4.60;56.20
3067;DHT22;1544;48.834;9.194;2023-04-15T04:05:23;4.50;56.20
3067;DHT22;1544;48.834;9.194;2023-04-15T04:07:58;5.10;56.60
3067;DHT22;1544;48.834;9.194;2023-04-15T04:10:33;4.50;56.10
3067;DHT22;1544;48.834;9.194;2023-04-15T04:13:08;4.50;56.20
3067;DHT22;1544;48.834;9.194;2023-04-15T04:15:43;4.50;56.40
3067;DHT22;1544;48.834;9.194;2023-04-15T04:18:18;4.50;56.40
3067;DHT22;1544;48.834;9.194;2023-04-15T04:20:53;4.40;56.40
3067;DHT22;1544;48.834;9.194;2023-04-15T04:23:28;4.40;56.50
3067;DHT22;1544;48.834;9.194;2023-04-15T04:26:03;4.40;56.60
3067;DHT22;1544;48.834;9.194;2023-04-15T04:28:39;4.40;56.50
3067;DHT22;1544;48.834;9.194;2023-04-15T04:31:14;4.40;56.70
3067;DHT22;1544;48.834;9.194;2023-04-15T04:33:49;4.40;56.90
3067;DHT22;1544;48.834;9.194;2023-04-15T04:36:24;4.40;56.90
3067;DHT22;1544;48.834;9.194;2023-04-15T04:39:00;4.40;56.70
3067;DHT22;1544;48.834;9.194;2023-04-15T04:41:35;4.40;56.90
3067;DHT22;1544;48.834;9.194;2023-04-15T04:44:10;4.50;57.00
3067;DHT22;1544;48.834;9.194;2023-04-15T04:46:48;4.50;56.90
3067;DHT22;1544;48.834;9.194;2023-04-15T04:49:23;4.50;56.90
3067;DHT22;1544;48.834;9.194;2023-04-15T04:51:58;4.50;56.90
3067;DHT22;1544;48.834;9.194;2023-04-15T04:54:33;4.50;56.60
3067;DHT22;1544;48.834;9.194;2023-04-15T04:57:08;4.50;56.60
3067;DHT22;1544;48.834;9.194;2023-04-15T04:59:43;4.50;56.60
3067;DHT22;1544;48.834;9.194;2023-04-15T05:02:18;4.50;56.30
3067;DHT22;1544;48.834;9.194;2023-04-15T05:04:53;4.50;56.20
3067;DHT22;1544;48.834;9.194;2023-04-15T05:07:28;4.50;56.10
3067;DHT22;1544;48.834;9.194;2023-04-15T05:10:03;4.60;55.80
3067;DHT22;1544;48.834;9.194;2023-04-15T05:12:40;4.60;55.50
3067;DHT22;1544;48.834;9.194;2023-04-15T05:15:15;4.60;55.20
3067;DHT22;1544;48.834;9.194;2023-04-15T05:17:50;4.60;54.80
3067;DHT22;1544;48.834;9.194;2023-04-15T05:20:25;4.60;54.60
3067;DHT22;1544;48.834;9.194;2023-04-15T05:23:00;4.60;54.60
3067;DHT22;1544;48.834;9.194;2023-04-15T05:25:35;4.60;54.30
3067;DHT22;1544;48.834;9.194;2023-04-15T05:28:10;4.60;54.00
3067;DHT22;1544;48.834;9.194;2023-04-15T05:30:46;4.70;53.80
3067;DHT22;1544;48.834;9.194;2023-04-15T05:33:21;4.70;53.40
3067;DHT22;1544;48.834;9.194;2023-04-15T05:35:56;4.70;53.00
3067;DHT22;1544;48.834;9.194;2023-04-15T05:38:32;4.80;52.80
3067;DHT22;1544;48.834;9.194;2023-04-15T05:41:07;4.80;52.50
3067;DHT22;1544;48.834;9.194;2023-04-15T05:43:42;4.80;52.10
3067;DHT22;1544;48.834;9.194;2023-04-15T05:46:17;4.90;51.90
3067;DHT22;1544;48.834;9.194;2023-04-15T05:48:52;4.90;51.60
3067;DHT22;1544;48.834;9.194;2023-04-15T05:51:30;4.90;51.30
3067;DHT22;1544;48.834;9.194;2023-04-15T05:54:04;5.00;51.20
3067;DHT22;1544;48.834;9.194;2023-04-15T05:56:40;5.10;51.10
3067;DHT22;1544;48.834;9.194;2023-04-15T05:59:15;5.20;50.90
3067;DHT22;1544;48.834;9.194;2023-04-15T06:01:50;5.20;50.70
3067;DHT22;1544;48.834;9.194;2023-04-15T06:04:25;5.30;50.60
3067;DHT22;1544;48.834;9.194;2023-04-15T06:07:01;5.40;50.40
3067;DHT22;1544;48.834;9.194;2023-04-15T06:09:36;5.50;50.30
3067;DHT22;1544;48.834;9.194;2023-04-15T06:12:10;5.60;50.20
3067;DHT22;1544;48.834;9.194;2023-04-15T06:14:46;5.70;50.10
3067;DHT22;1544;48.834;9.194;2023-04-15T06:17:21;5.80;49.90
3067;DHT22;1544;48.834;9.194;2023-04-15T06:19:56;6.00;49.80
3067;DHT22;1544;48.834;9.194;2023-04-15T06:22:31;6.10;49.60
3067;DHT22;1544;48.834;9.194;2023-04-15T06:25:07;6.20;49.30
3067;DHT22;1544;48.834;9.194;2023-04-15T06:27:43;6.30;48.90
3067;DHT22;1544;48.834;9.194;2023-04-15T06:30:18;6.50;48.20
3067;DHT22;1544;48.834;9.194;2023-04-15T06:32:54;6.60;47.50
3067;DHT22;1544;48.834;9.194;2023-04-15T06:35:29;6.80;46.50
3067;DHT22;1544;48.834;9.194;2023-04-15T06:38:04;7.00;45.70
3067;DHT22;1544;48.834;9.194;2023-04-15T06:40:39;7.10;44.90
3067;DHT22;1544;48.834;9.194;2023-04-15T06:43:15;7.20;44.30
3067;DHT22;1544;48.834;9.194;2023-04-15T06:45:50;7.40;43.90
3067;DHT22;1544;48.834;9.194;2023-04-15T06:48:26;7.60;43.50
3067;DHT22;1544;48.834;9.194;2023-04-15T06:51:01;7.70;42.70
3067;DHT22;1544;48.834;9.194;2023-04-15T06:53:38;7.90;42.30
3067;DHT22;1544;48.834;9.194;2023-04-15T06:56:15;8.10;41.90
3067;DHT22;1544;48.834;9.194;2023-04-15T06:58:50;8.20;41.30
3067;DHT22;1544;48.834;9.194;2023-04-15T07:01:25;8.30;40.70
3067;DHT22;1544;48.834;9.194;2023-04-15T07:04:01;8.40;40.00
3067;DHT22;1544;48.834;9.194;2023-04-15T07:06:36;8.50;39.70
3067;DHT22;1544;48.834;9.194;2023-04-15T07:09:11;8.60;39.50
3067;DHT22;1544;48.834;9.194;2023-04-15T07:11:47;8.70;39.10
3067;DHT22;1544;48.834;9.194;2023-04-15T07:14:23;8.80;38.90
3067;DHT22;1544;48.834;9.194;2023-04-15T07:16:58;8.80;38.70
3067;DHT22;1544;48.834;9.194;2023-04-15T07:19:33;8.90;38.60
3067;DHT22;1544;48.834;9.194;2023-04-15T07:22:08;9.00;38.50
3067;DHT22;1544;48.834;9.194;2023-04-15T07:24:43;9.00;38.30
3067;DHT22;1544;48.834;9.194;2023-04-15T07:27:18;9.10;38.30
3067;DHT22;1544;48.834;9.194;2023-04-15T07:29:53;9.10;38.10
3067;DHT22;1544;48.834;9.194;2023-04-15T07:32:28;9.20;37.90
3067;DHT22;1544;48.834;9.194;2023-04-15T07:35:03;9.20;37.80
3067;DHT22;1544;48.834;9.194;2023-04-15T07:37:40;9.30;37.80
3067;DHT22;1544;48.834;9.194;2023-04-15T07:40:18;9.40;37.70
3067;DHT22;1544;48.834;9.194;2023-04-15T07:42:54;9.50;37.50
3067;DHT22;1544;48.834;9.194;2023-04-15T07:45:31;9.70;37.10
3067;DHT22;1544;48.834;9.194;2023-04-15T07:48:06;9.90;37.10
3067;DHT22;1544;48.834;9.194;2023-04-15T07:50:41;10.00;36.10
3067;DHT22;1544;48.834;9.194;2023-04-15T07:53:16;10.30;36.10
3067;DHT22;1544;48.834;9.194;2023-04-15T07:55:51;10.50;36.10
3067;DHT22;1544;48.834;9.194;2023-04-15T07:58:26;10.60;35.40
3067;DHT22;1544;48.834;9.194;2023-04-15T08:01:01;10.70;35.10
3067;DHT22;1544;48.834;9.194;2023-04-15T08:03:38;10.80;35.00
3067;DHT22;1544;48.834;9.194;2023-04-15T08:06:14;11.00;34.80
3067;DHT22;1544;48.834;9.194;2023-04-15T08:08:49;11.10;34.30
3067;DHT22;1544;48.834;9.194;2023-04-15T08:11:26;11.20;33.90
3067;DHT22;1544;48.834;9.194;2023-04-15T08:14:01;11.30;33.80
3067;DHT22;1544;48.834;9.194;2023-04-15T08:16:36;11.50;33.90
3067;DHT22;1544;48.834;9.194;2023-04-15T08:19:12;11.60;33.90
3067;DHT22;1544;48.834;9.194;2023-04-15T08:21:46;11.70;33.90
3067;DHT22;1544;48.834;9.194;2023-04-15T08:24:22;11.70;34.30
3067;DHT22;1544;48.834;9.194;2023-04-15T08:26:59;11.80;33.70
3067;DHT22;1544;48.834;9.194;2023-04-15T08:29:38;11.90;33.60
3067;DHT22;1544;48.834;9.194;2023-04-15T08:32:14;12.00;33.00
3067;DHT22;1544;48.834;9.194;2023-04-15T08:34:49;12.10;32.50
3067;DHT22;1544;48.834;9.194;2023-04-15T08:37:24;12.20;32.60
3067;DHT22;1544;48.834;9.194;2023-04-15T08:40:00;12.40;32.40
3067;DHT22;1544;48.834;9.194;2023-04-15T08:42:43;12.50;31.40
3067;DHT22;1544;48.834;9.194;2023-04-15T08:45:22;12.70;31.80
3067;DHT22;1544;48.834;9.194;2023-04-15T08:47:58;13.00;31.60
3067;DHT22;1544;48.834;9.194;2023-04-15T08:50:35;13.10;31.10
3067;DHT22;1544;48.834;9.194;2023-04-15T08:53:10;13.20;31.30
3067;DHT22;1544;48.834;9.194;2023-04-15T08:55:51;13.30;30.90
3067;DHT22;1544;48.834;9.194;2023-04-15T08:58:26;13.50;31.20
3067;DHT22;1544;48.834;9.194;2023-04-15T09:01:02;13.50;30.90
3067;DHT22;1544;48.834;9.194;2023-04-15T09:03:37;13.60;30.70
3067;DHT22;1544;48.834;9.194;2023-04-15T09:06:13;13.70;30.70
3067;DHT22;1544;48.834;9.194;2023-04-15T09:08:52;13.80;29.90
3067;DHT22;1544;48.834;9.194;2023-04-15T09:11:29;13.80;30.00
3067;DHT22;1544;48.834;9.194;2023-04-15T09:14:05;13.90;29.70
3067;DHT22;1544;48.834;9.194;2023-04-15T09:17:00;13.90;29.60
3067;DHT22;1544;48.834;9.194;2023-04-15T09:19:36;14.00;29.50
3067;DHT22;1544;48.834;9.194;2023-04-15T09:22:12;14.10;29.70
3067;DHT22;1544;48.834;9.194;2023-04-15T09:24:47;14.20;29.70
3067;DHT22;1544;48.834;9.194;2023-04-15T09:27:22;14.40;29.90
3067;DHT22;1544;48.834;9.194;2023-04-15T09:29:57;14.50;29.10
3067;DHT22;1544;48.834;9.194;2023-04-15T09:32:32;14.70;29.10
3067;DHT22;1544;48.834;9.194;2023-04-15T09:35:11;14.90;29.10
3067;DHT22;1544;48.834;9.194;2023-04-15T09:37:47;15.20;29.30
3067;DHT22;1544;48.834;9.194;2023-04-15T09:40:36;16.70;29.30
3067;DHT22;1544;48.834;9.194;2023-04-15T09:43:12;15.60;27.40
3067;DHT22;1544;48.834;9.194;2023-04-15T09:45:50;15.70;27.00
3067;DHT22;1544;48.834;9.194;2023-04-15T09:48:26;15.80;26.80
3067;DHT22;1544;48.834;9.194;2023-04-15T09:51:01;15.90;26.60
3067;DHT22;1544;48.834;9.194;2023-04-15T09:53:36;15.90;26.60
3067;DHT22;1544;48.834;9.194;2023-04-15T09:56:11;16.10;26.90
3067;DHT22;1544;48.834;9.194;2023-04-15T09:58:55;16.20;26.90
3067;DHT22;1544;48.834;9.194;2023-04-15T10:01:30;16.30;27.00
3067;DHT22;1544;48.834;9.194;2023-04-15T10:04:06;16.40;26.50
3067;DHT22;1544;48.834;9.194;2023-04-15T10:06:42;16.40;26.50
3067;DHT22;1544;48.834;9.194;2023-04-15T10:09:18;16.50;26.90
3067;DHT22;1544;48.834;9.194;2023-04-15T10:11:53;16.60;27.00
3067;DHT22;1544;48.834;9.194;2023-04-15T10:14:31;16.70;27.10
3067;DHT22;1544;48.834;9.194;2023-04-15T10:17:12;16.80;27.40
3067;DHT22;1544;48.834;9.194;2023-04-15T10:19:52;16.90;27.10
3067;DHT22;1544;48.834;9.194;2023-04-15T10:22:28;16.90;27.10
3067;DHT22;1544;48.834;9.194;2023-04-15T10:25:05;16.90;26.60
3067;DHT22;1544;48.834;9.194;2023-04-15T10:27:40;16.80;26.40
3067;DHT22;1544;48.834;9.194;2023-04-15T10:30:16;16.70;26.90
3067;DHT22;1544;48.834;9.194;2023-04-15T10:32:52;16.90;26.90
3067;DHT22;1544;48.834;9.194;2023-04-15T10:35:32;17.00;26.30
3067;DHT22;1544;48.834;9.194;2023-04-15T10:38:43;17.00;26.20
3067;DHT22;1544;48.834;9.194;2023-04-15T10:41:20;17.00;26.40
3067;DHT22;1544;48.834;9.194;2023-04-15T10:44:01;17.10;26.30
3067;DHT22;1544;48.834;9.194;2023-04-15T10:46:41;17.00;25.80
3067;DHT22;1544;48.834;9.194;2023-04-15T10:49:24;16.90;25.90
3067;DHT22;1544;48.834;9.194;2023-04-15T10:52:00;17.10;25.80
3067;DHT22;1544;48.834;9.194;2023-04-15T10:54:36;17.10;25.90
3067;DHT22;1544;48.834;9.194;2023-04-15T10:57:15;17.20;26.50
3067;DHT22;1544;48.834;9.194;2023-04-15T11:00:03;17.40;26.50
3067;DHT22;1544;48.834;9.194;2023-04-15T11:08:15;18.00;26.90
3067;DHT22;1544;48.834;9.194;2023-04-15T11:10:52;18.20;26.50
3067;DHT22;1544;48.834;9.194;2023-04-15T11:13:28;18.40;26.30
3067;DHT22;1544;48.834;9.194;2023-04-15T11:16:05;18.50;26.20
3067;DHT22;1544;48.834;9.194;2023-04-15T11:18:41;18.50;26.10
3067;DHT22;1544;48.834;9.194;2023-04-15T11:21:16;18.40;25.80
3067;DHT22;1544;48.834;9.194;2023-04-15T11:23:51;18.20;26.10
3067;DHT22;1544;48.834;9.194;2023-04-15T11:26:26;18.20;26.00
3067;DHT22;1544;48.834;9.194;2023-04-15T11:29:01;18.10;26.20
3067;DHT22;1544;48.834;9.194;2023-04-15T11:31:37;18.10;25.90
3067;DHT22;1544;48.834;9.194;2023-04-15T11:34:12;18.10;26.00
3067;DHT22;1544;48.834;9.194;2023-04-15T11:36:57;18.10;25.80
3067;DHT22;1544;48.834;9.194;2023-04-15T11:39:32;17.80;25.80
3067;DHT22;1544;48.834;9.194;2023-04-15T11:42:17;17.60;25.80
3067;DHT22;1544;48.834;9.194;2023-04-15T11:45:10;17.50;26.20
3067;DHT22;1544;48.834;9.194;2023-04-15T11:47:46;17.30;26.30
3067;DHT22;1544;48.834;9.194;2023-04-15T11:50:22;17.30;27.00
3067;DHT22;1544;48.834;9.194;2023-04-15T11:52:59;17.40;26.90
3067;DHT22;1544;48.834;9.194;2023-04-15T11:55:47;17.40;26.70
3067;DHT22;1544;48.834;9.194;2023-04-15T11:58:24;17.50;26.90
3067;DHT22;1544;48.834;9.194;2023-04-15T12:01:00;17.60;26.60
3067;DHT22;1544;48.834;9.194;2023-04-15T12:03:41;17.70;26.90
3067;DHT22;1544;48.834;9.194;2023-04-15T12:11:46;17.80;26.40
3067;DHT22;1544;48.834;9.194;2023-04-15T12:14:31;17.60;26.30
3067;DHT22;1544;48.834;9.194;2023-04-15T12:17:06;17.40;26.40
3067;DHT22;1544;48.834;9.194;2023-04-15T12:19:44;17.30;26.50
3067;DHT22;1544;48.834;9.194;2023-04-15T12:22:19;17.00;26.00
3067;DHT22;1544;48.834;9.194;2023-04-15T12:24:55;16.90;26.50
3067;DHT22;1544;48.834;9.194;2023-04-15T12:27:30;16.50;28.40
3067;DHT22;1544;48.834;9.194;2023-04-15T12:30:06;15.70;32.30
3067;DHT22;1544;48.834;9.194;2023-04-15T12:32:41;14.70;36.10
3067;DHT22;1544;48.834;9.194;2023-04-15T12:35:17;13.70;37.40
3067;DHT22;1544;48.834;9.194;2023-04-15T12:37:55;12.90;38.80
3067;DHT22;1544;48.834;9.194;2023-04-15T12:40:30;12.30;44.40
3067;DHT22;1544;48.834;9.194;2023-04-15T12:43:05;12.00;46.80
3067;DHT22;1544;48.834;9.194;2023-04-15T12:45:41;11.80;48.60
3067;DHT22;1544;48.834;9.194;2023-04-15T12:48:16;11.80;52.80
3067;DHT22;1544;48.834;9.194;2023-04-15T12:50:51;11.90;55.50
3067;DHT22;1544;48.834;9.194;2023-04-15T12:53:27;12.10;58.50
3067;DHT22;1544;48.834;9.194;2023-04-15T12:56:04;12.50;59.10
3067;DHT22;1544;48.834;9.194;2023-04-15T12:58:40;12.70;57.10
3067;DHT22;1544;48.834;9.194;2023-04-15T13:01:15;12.90;54.20
3067;DHT22;1544;48.834;9.194;2023-04-15T13:03:50;13.10;50.80
3067;DHT22;1544;48.834;9.194;2023-04-15T13:06:27;13.20;45.60
3067;DHT22;1544;48.834;9.194;2023-04-15T13:09:03;13.50;46.20
3067;DHT22;1544;48.834;9.194;2023-04-15T13:11:39;13.80;46.80
3067;DHT22;1544;48.834;9.194;2023-04-15T13:14:14;14.00;39.90
3067;DHT22;1544;48.834;9.194;2023-04-15T13:16:50;14.00;36.90
3067;DHT22;1544;48.834;9.194;2023-04-15T13:19:26;14.00;34.40
3067;DHT22;1544;48.834;9.194;2023-04-15T13:22:01;14.10;35.40
3067;DHT22;1544;48.834;9.194;2023-04-15T13:24:36;14.10;33.30
3067;DHT22;1544;48.834;9.194;2023-04-15T13:27:11;14.10;33.00
3067;DHT22;1544;48.834;9.194;2023-04-15T13:29:46;14.20;33.60
3067;DHT22;1544;48.834;9.194;2023-04-15T13:32:22;14.40;32.00
3067;DHT22;1544;48.834;9.194;2023-04-15T13:34:56;14.50;31.40
3067;DHT22;1544;48.834;9.194;2023-04-15T13:37:31;14.70;30.40
3067;DHT22;1544;48.834;9.194;2023-04-15T13:40:07;14.90;30.00
3067;DHT22;1544;48.834;9.194;2023-04-15T13:42:43;15.10;30.10
3067;DHT22;1544;48.834;9.194;2023-04-15T13:45:18;15.30;28.30
3067;DHT22;1544;48.834;9.194;2023-04-15T13:47:54;15.30;27.90
3067;DHT22;1544;48.834;9.194;2023-04-15T13:50:30;15.40;28.00
3067;DHT22;1544;48.834;9.194;2023-04-15T13:53:05;15.20;27.10
3067;DHT22;1544;48.834;9.194;2023-04-15T13:55:40;15.10;26.60
3067;DHT22;1544;48.834;9.194;2023-04-15T13:58:16;14.90;26.70
3067;DHT22;1544;48.834;9.194;2023-04-15T14:00:51;14.80;26.60
3067;DHT22;1544;48.834;9.194;2023-04-15T14:03:28;14.70;26.30
3067;DHT22;1544;48.834;9.194;2023-04-15T14:06:04;14.60;26.50
3067;DHT22;1544;48.834;9.194;2023-04-15T14:08:39;14.50;26.80
3067;DHT22;1544;48.834;9.194;2023-04-15T14:11:14;14.50;26.60
3067;DHT22;1544;48.834;9.194;2023-04-15T14:13:49;14.40;26.60
3067;DHT22;1544;48.834;9.194;2023-04-15T14:16:24;14.40;27.00
3067;DHT22;1544;48.834;9.194;2023-04-15T14:19:01;14.50;26.50
3067;DHT22;1544;48.834;9.194;2023-04-15T14:21:37;14.30;25.70
3067;DHT22;1544;48.834;9.194;2023-04-15T14:24:12;14.30;25.50
3067;DHT22;1544;48.834;9.194;2023-04-15T14:26:46;14.10;25.10
3067;DHT22;1544;48.834;9.194;2023-04-15T14:29:21;14.00;25.30
3067;DHT22;1544;48.834;9.194;2023-04-15T14:31:56;14.00;25.20
3067;DHT22;1544;48.834;9.194;2023-04-15T14:34:45;13.90;25.30
3067;DHT22;1544;48.834;9.194;2023-04-15T14:37:20;13.90;25.70
3067;DHT22;1544;48.834;9.194;2023-04-15T14:39:55;13.90;25.80
3067;DHT22;1544;48.834;9.194;2023-04-15T14:42:32;13.80;26.30
3067;DHT22;1544;48.834;9.194;2023-04-15T14:45:07;13.70;26.20
3067;DHT22;1544;48.834;9.194;2023-04-15T14:47:43;13.60;26.30
3067;DHT22;1544;48.834;9.194;2023-04-15T14:50:18;13.50;26.40
3067;DHT22;1544;48.834;9.194;2023-04-15T14:52:53;13.50;26.50
3067;DHT22;1544;48.834;9.194;2023-04-15T14:55:28;13.40;26.70
3067;DHT22;1544;48.834;9.194;2023-04-15T14:58:03;13.30;26.60
3067;DHT22;1544;48.834;9.194;2023-04-15T15:00:38;13.30;26.40
3067;DHT22;1544;48.834;9.194;2023-04-15T15:03:15;13.20;26.60
3067;DHT22;1544;48.834;9.194;2023-04-15T15:05:50;13.10;26.70
3067;DHT22;1544;48.834;9.194;2023-04-15T15:08:25;13.00;27.00
3067;DHT22;1544;48.834;9.194;2023-04-15T15:11:00;12.90;27.30
3067;DHT22;1544;48.834;9.194;2023-04-15T15:13:35;12.80;27.40
3067;DHT22;1544;48.834;9.194;2023-04-15T15:16:10;12.70;27.40
3067;DHT22;1544;48.834;9.194;2023-04-15T15:18:49;12.60;27.60
3067;DHT22;1544;48.834;9.194;2023-04-15T15:21:25;12.60;27.70
3067;DHT22;1544;48.834;9.194;2023-04-15T15:24:00;12.60;27.70
3067;DHT22;1544;48.834;9.194;2023-04-15T15:26:35;12.50;28.00
3067;DHT22;1544;48.834;9.194;2023-04-15T15:29:10;12.50;28.20
3067;DHT22;1544;48.834;9.194;2023-04-15T15:31:45;12.50;28.30
3067;DHT22;1544;48.834;9.194;2023-04-15T15:34:20;12.40;28.50
3067;DHT22;1544;48.834;9.194;2023-04-15T15:36:55;12.40;28.20
3067;DHT22;1544;48.834;9.194;2023-04-15T15:39:31;12.40;28.20
3067;DHT22;1544;48.834;9.194;2023-04-15T15:42:06;12.40;28.10
3067;DHT22;1544;48.834;9.194;2023-04-15T15:44:41;12.40;28.00
3067;DHT22;1544;48.834;9.194;2023-04-15T15:47:16;12.50;28.10
3067;DHT22;1544;48.834;9.194;2023-04-15T15:49:52;12.50;28.20
3067;DHT22;1544;48.834;9.194;2023-04-15T15:52:27;12.40;28.20
3067;DHT22;1544;48.834;9.194;2023-04-15T15:55:02;12.40;28.50
3067;DHT22;1544;48.834;9.194;2023-04-15T15:57:38;12.50;28.90
3067;DHT22;1544;48.834;9.194;2023-04-15T16:00:13;12.40;29.20
3067;DHT22;1544;48.834;9.194;2023-04-15T16:02:48;12.40;30.10
3067;DHT22;1544;48.834;9.194;2023-04-15T16:05:41;12.20;30.70
3067;DHT22;1544;48.834;9.194;2023-04-15T16:08:16;12.20;31.30
3067;DHT22;1544;48.834;9.194;2023-04-15T16:10:51;12.10;32.10
3067;DHT22;1544;48.834;9.194;2023-04-15T16:13:26;12.00;32.60
3067;DHT22;1544;48.834;9.194;2023-04-15T16:16:01;12.00;33.80
3067;DHT22;1544;48.834;9.194;2023-04-15T16:18:36;11.90;34.60
3067;DHT22;1544;48.834;9.194;2023-04-15T16:21:11;12.00;35.40
3067;DHT22;1544;48.834;9.194;2023-04-15T16:23:47;12.00;36.40
3067;DHT22;1544;48.834;9.194;2023-04-15T16:26:22;12.00;37.10
3067;DHT22;1544;48.834;9.194;2023-04-15T16:28:57;12.00;37.60
3067;DHT22;1544;48.834;9.194;2023-04-15T16:31:32;12.10;37.80
3067;DHT22;1544;48.834;9.194;2023-04-15T16:34:09;12.10;38.20
3067;DHT22;1544;48.834;9.194;2023-04-15T16:36:44;12.20;38.40
3067;DHT22;1544;48.834;9.194;2023-04-15T16:39:18;12.20;38.40
3067;DHT22;1544;48.834;9.194;2023-04-15T16:41:53;12.20;38.60
3067;DHT22;1544;48.834;9.194;2023-04-15T16:44:29;12.20;38.30
3067;DHT22;1544;48.834;9.194;2023-04-15T16:47:05;12.10;38.00
3067;DHT22;1544;48.834;9.194;2023-04-15T16:49:40;12.10;38.10
3067;DHT22;1544;48.834;9.194;2023-04-15T16:52:16;12.10;38.30
3067;DHT22;1544;48.834;9.194;2023-04-15T16:54:50;12.00;38.70
3067;DHT22;1544;48.834;9.194;2023-04-15T16:57:26;11.90;40.10
3067;DHT22;1544;48.834;9.194;2023-04-15T17:00:21;11.60;41.90
3067;DHT22;1544;48.834;9.194;2023-04-15T17:02:56;11.50;43.10
3067;DHT22;1544;48.834;9.194;2023-04-15T17:05:31;11.40;44.20
3067;DHT22;1544;48.834;9.194;2023-04-15T17:08:07;11.30;44.70
3067;DHT22;1544;48.834;9.194;2023-04-15T17:10:42;11.30;45.70
3067;DHT22;1544;48.834;9.194;2023-04-15T17:13:17;11.20;46.00
3067;DHT22;1544;48.834;9.194;2023-04-15T17:15:52;11.20;47.40
3067;DHT22;1544;48.834;9.194;2023-04-15T17:18:30;11.00;48.40